createdAt,value
2018-06-30T00:01:08.439Z,8.23
2018-06-30T00:03:42.624Z,7.90
2018-06-30T00:06:11.811Z,8.03
2018-06-30T00:08:41.096Z,8.53
2018-06-30T00:11:09.836Z,8.47
2018-06-30T00:13:39.143Z,8.83
2018-06-30T00:16:08.690Z,8.53
2018-06-30T00:18:38.113Z,8.53
2018-06-30T00:21:07.879Z,9.10
2018-06-30T00:23:37.060Z,8.93
2018-06-30T00:26:06.399Z,9.33
2018-06-30T00:28:35.661Z,10.00
2018-06-30T00:31:05.251Z,9.63
2018-06-30T00:33:34.622Z,9.70
2018-06-30T00:36:04.075Z,8.97
2018-06-30T00:38:33.312Z,9.87
2018-06-30T00:41:02.578Z,9.87
2018-06-30T00:43:31.847Z,10.17
2018-06-30T00:46:01.072Z,10.27
2018-06-30T00:48:30.273Z,9.83
2018-06-30T00:50:59.446Z,9.33
2018-06-30T00:53:28.684Z,9.30
2018-06-30T00:55:57.889Z,9.57
2018-06-30T00:58:27.103Z,9.43
2018-06-30T01:00:56.359Z,9.30
2018-06-30T01:03:25.592Z,8.83
2018-06-30T01:05:54.811Z,9.67
2018-06-30T01:08:24.068Z,9.73
2018-06-30T01:10:53.324Z,10.10
2018-06-30T01:13:22.503Z,9.13
2018-06-30T01:15:51.712Z,9.13
2018-06-30T01:18:20.962Z,8.93
2018-06-30T01:20:50.259Z,8.80
2018-06-30T01:23:19.418Z,10.53
2018-06-30T01:25:49.316Z,9.00
2018-06-30T01:28:18.498Z,8.83
2018-06-30T01:30:47.697Z,8.70
2018-06-30T01:33:16.938Z,8.70
2018-06-30T01:35:46.144Z,9.20
2018-06-30T01:38:15.348Z,8.90
2018-06-30T01:40:46.436Z,8.90
2018-06-30T01:43:15.624Z,9.13
2018-06-30T01:45:44.856Z,8.80
2018-06-30T01:48:14.028Z,8.50
2018-06-30T01:50:43.280Z,9.43
2018-06-30T01:53:12.571Z,9.13
2018-06-30T01:55:41.985Z,8.43
2018-06-30T01:58:11.213Z,8.80
2018-06-30T02:00:40.384Z,9.40
2018-06-30T02:03:09.644Z,9.60
2018-06-30T02:05:39.135Z,9.67
2018-06-30T02:08:08.356Z,9.13
2018-06-30T02:10:38.225Z,9.27
2018-06-30T02:13:07.559Z,9.50
2018-06-30T02:15:36.799Z,9.30
2018-06-30T02:18:07.151Z,9.57
2018-06-30T02:20:36.338Z,9.60
2018-06-30T02:23:05.724Z,9.60
2018-06-30T02:25:34.984Z,9.07
2018-06-30T02:28:04.187Z,9.20
2018-06-30T02:30:33.371Z,9.83
2018-06-30T02:33:02.770Z,9.30
2018-06-30T02:35:31.996Z,9.33
2018-06-30T02:38:01.236Z,9.90
2018-06-30T02:40:30.442Z,9.47
2018-06-30T02:42:59.543Z,9.20
2018-06-30T02:45:28.684Z,9.03
2018-06-30T02:47:57.874Z,8.97
2018-06-30T02:50:26.542Z,9.63
2018-06-30T02:52:55.784Z,9.63
2018-06-30T02:55:24.955Z,8.60
2018-06-30T02:57:54.224Z,9.50
2018-06-30T03:00:23.398Z,8.43
2018-06-30T03:02:52.679Z,8.80
2018-06-30T03:05:21.947Z,9.03
2018-06-30T03:07:51.193Z,8.43
2018-06-30T03:10:20.363Z,9.00
2018-06-30T03:12:49.556Z,9.33
2018-06-30T03:15:20.187Z,9.30
2018-06-30T03:17:49.522Z,8.90
2018-06-30T03:20:18.712Z,8.53
2018-06-30T03:22:47.867Z,8.53
2018-06-30T03:25:17.041Z,8.27
2018-06-30T03:27:46.259Z,8.17
2018-06-30T03:30:15.480Z,8.47
2018-06-30T03:32:44.956Z,8.67
2018-06-30T03:35:14.203Z,8.30
2018-06-30T03:37:44.540Z,8.30
2018-06-30T03:40:13.744Z,7.73
2018-06-30T03:42:42.955Z,8.00
2018-06-30T03:45:12.196Z,8.37
2018-06-30T03:47:41.346Z,8.17
2018-06-30T03:50:10.644Z,8.07
2018-06-30T03:52:39.868Z,8.27
2018-06-30T03:55:09.054Z,8.30
2018-06-30T03:57:38.256Z,8.00
2018-06-30T04:00:07.579Z,8.50
2018-06-30T04:02:36.790Z,7.97
2018-06-30T04:05:06.489Z,8.03
2018-06-30T04:07:35.648Z,8.13
2018-06-30T04:10:04.967Z,8.17
2018-06-30T04:12:34.212Z,8.40
2018-06-30T04:15:03.403Z,8.50
2018-06-30T04:17:33.484Z,8.03
2018-06-30T04:20:02.788Z,7.90
2018-06-30T04:22:32.069Z,8.20
2018-06-30T04:25:01.451Z,7.90
2018-06-30T04:27:30.742Z,7.80
2018-06-30T04:30:00.119Z,8.80
2018-06-30T04:32:29.322Z,7.87
2018-06-30T04:34:58.437Z,8.57
2018-06-30T04:37:27.439Z,8.40
2018-06-30T04:39:56.554Z,8.33
2018-06-30T04:42:25.727Z,7.97
2018-06-30T04:44:54.714Z,7.23
2018-06-30T04:47:23.686Z,7.47
2018-06-30T04:49:52.705Z,7.00
2018-06-30T04:52:21.650Z,7.23
2018-06-30T04:54:50.678Z,7.17
2018-06-30T04:57:19.824Z,6.87
2018-06-30T04:59:49.076Z,6.73
2018-06-30T05:02:18.300Z,7.10
2018-06-30T05:04:48.107Z,6.13
2018-06-30T05:07:17.299Z,6.73
2018-06-30T05:09:46.575Z,6.57
2018-06-30T05:12:15.810Z,5.67
2018-06-30T05:14:44.998Z,6.17
2018-06-30T05:17:14.248Z,8.67
2018-06-30T05:19:43.454Z,5.67
2018-06-30T05:22:12.682Z,6.23
2018-06-30T05:24:41.893Z,6.20
2018-06-30T05:27:11.141Z,7.10
2018-06-30T05:29:40.391Z,5.27
2018-06-30T05:32:09.682Z,5.93
2018-06-30T05:34:38.901Z,7.73
2018-06-30T05:37:08.091Z,6.27
2018-06-30T05:39:39.614Z,6.30
2018-06-30T05:42:08.739Z,5.17
2018-06-30T05:44:37.971Z,6.93
2018-06-30T05:47:07.251Z,5.23
2018-06-30T05:49:36.727Z,5.43
2018-06-30T05:52:06.019Z,5.63
2018-06-30T05:54:35.204Z,5.00
2018-06-30T05:57:04.477Z,7.23
2018-06-30T05:59:33.662Z,6.70
2018-06-30T06:02:03.036Z,6.30
2018-06-30T06:04:32.238Z,6.23
2018-06-30T06:07:01.605Z,5.23
2018-06-30T06:09:30.830Z,4.83
2018-06-30T06:12:00.053Z,4.80
2018-06-30T06:14:29.223Z,5.33
2018-06-30T06:16:58.449Z,6.43
2018-06-30T06:19:28.062Z,4.70
2018-06-30T06:21:57.287Z,6.60
2018-06-30T06:24:26.480Z,4.80
2018-06-30T06:26:55.742Z,4.87
2018-06-30T06:29:24.878Z,4.93
2018-06-30T06:31:55.095Z,5.50
2018-06-30T06:34:24.319Z,6.27
2018-06-30T06:45:31.419Z,5.37
2018-06-30T06:48:00.640Z,5.37
2018-06-30T06:50:30.013Z,4.53
2018-06-30T06:52:59.307Z,4.57
2018-06-30T06:55:28.580Z,7.73
2018-06-30T06:57:58.070Z,8.73
2018-06-30T07:00:27.339Z,5.57
2018-06-30T07:02:56.604Z,6.43
2018-06-30T07:05:27.598Z,6.87
2018-06-30T07:07:56.911Z,6.03
2018-06-30T07:10:26.153Z,5.00
2018-06-30T07:12:54.946Z,5.40
2018-06-30T07:15:24.231Z,5.40
2018-06-30T07:17:53.523Z,6.37
2018-06-30T07:20:22.783Z,5.23
2018-06-30T07:22:52.031Z,5.60
2018-06-30T07:25:21.399Z,6.03
2018-06-30T07:27:50.667Z,6.60
2018-06-30T07:30:19.896Z,7.23
2018-06-30T07:32:49.122Z,6.70
2018-06-30T07:35:18.420Z,6.57
2018-06-30T07:37:47.968Z,8.13
2018-06-30T07:40:17.232Z,5.80
2018-06-30T07:42:46.549Z,5.77
2018-06-30T07:45:16.039Z,8.23
2018-06-30T07:47:45.748Z,5.30
2018-06-30T07:50:14.485Z,5.20
2018-06-30T07:52:43.746Z,6.13
2018-06-30T07:55:13.283Z,6.47
2018-06-30T07:57:42.463Z,5.60
2018-06-30T08:00:11.676Z,6.37
2018-06-30T08:02:40.895Z,5.00
2018-06-30T08:05:10.159Z,7.23
2018-06-30T08:07:39.325Z,5.83
2018-06-30T08:10:08.619Z,5.30
2018-06-30T08:12:38.047Z,4.83
2018-06-30T08:15:07.303Z,6.40
2018-06-30T08:17:36.504Z,5.73
2018-06-30T08:20:05.775Z,6.23
2018-06-30T08:22:35.083Z,4.77
2018-06-30T08:25:04.539Z,5.10
2018-06-30T08:27:33.271Z,6.60
2018-06-30T08:30:02.540Z,5.67
2018-06-30T08:32:31.819Z,5.83
2018-06-30T08:35:01.077Z,5.20
2018-06-30T08:37:30.298Z,6.77
2018-06-30T08:39:59.504Z,5.90
2018-06-30T08:42:28.717Z,6.13
2018-06-30T08:44:57.939Z,5.30
2018-06-30T08:47:27.151Z,8.47
2018-06-30T08:49:56.373Z,9.30
2018-06-30T08:52:25.573Z,5.53
2018-06-30T08:54:54.797Z,5.57
2018-06-30T08:57:24.071Z,5.30
2018-06-30T08:59:53.391Z,5.87
2018-06-30T09:02:22.731Z,4.90
2018-06-30T09:04:52.089Z,6.93
2018-06-30T09:07:21.322Z,4.60
2018-06-30T09:09:50.531Z,5.10
2018-06-30T09:12:20.789Z,6.13
2018-06-30T09:14:50.001Z,4.87
2018-06-30T09:17:19.197Z,8.60
2018-06-30T09:19:48.448Z,5.13
2018-06-30T09:22:17.703Z,7.47
2018-06-30T09:24:46.934Z,6.77
2018-06-30T09:27:16.170Z,4.83
2018-06-30T09:29:45.461Z,5.47
2018-06-30T09:32:14.598Z,5.13
2018-06-30T09:34:43.747Z,7.03
2018-06-30T09:37:13.060Z,5.90
2018-06-30T09:39:42.276Z,5.65
2018-06-30T09:42:11.580Z,7.23
2018-06-30T09:44:40.830Z,5.50
2018-06-30T09:47:10.064Z,5.33
2018-06-30T09:49:39.983Z,8.17
2018-06-30T09:52:09.261Z,5.73
2018-06-30T10:00:31.863Z,4.93
2018-06-30T10:03:01.272Z,5.37
2018-06-30T10:05:30.544Z,5.10
2018-06-30T10:07:59.825Z,6.13
2018-06-30T10:10:29.044Z,9.27
2018-06-30T10:12:58.320Z,8.40
2018-06-30T10:15:27.621Z,8.00
2018-06-30T10:17:56.886Z,5.60
2018-06-30T10:20:26.347Z,4.87
2018-06-30T10:22:55.631Z,6.27
2018-06-30T10:25:24.839Z,5.00
2018-06-30T10:27:54.116Z,5.03
2018-06-30T10:30:23.352Z,4.73
2018-06-30T10:32:52.570Z,5.83
2018-06-30T10:35:21.286Z,7.07
2018-06-30T10:37:49.962Z,6.13
2018-06-30T10:40:19.115Z,5.30
2018-06-30T10:42:48.336Z,4.70
2018-06-30T10:45:17.556Z,4.33
2018-06-30T10:47:46.803Z,6.70
2018-06-30T10:50:16.083Z,4.70
2018-06-30T10:52:45.351Z,4.60
2018-06-30T10:55:14.638Z,5.07
2018-06-30T10:57:43.951Z,5.10
2018-06-30T11:00:13.277Z,7.47
2018-06-30T11:02:42.538Z,5.23
2018-06-30T11:05:12.478Z,5.17
2018-06-30T11:07:41.671Z,4.70
2018-06-30T11:10:11.342Z,5.63
2018-06-30T11:12:40.651Z,8.90
2018-06-30T11:15:09.848Z,5.10
2018-06-30T11:17:39.153Z,4.57
2018-06-30T11:20:08.464Z,4.00
2018-06-30T11:22:37.704Z,3.70
2018-06-30T11:25:07.946Z,3.90
2018-06-30T11:27:37.307Z,3.60
2018-06-30T11:30:06.819Z,4.27
2018-06-30T11:32:36.460Z,6.30
2018-06-30T11:35:06.278Z,4.10
2018-06-30T11:37:35.512Z,4.30
2018-06-30T11:40:04.919Z,3.93
2018-06-30T11:42:34.128Z,7.13
2018-06-30T11:45:03.376Z,3.93
2018-06-30T11:47:32.875Z,3.60
2018-06-30T11:50:02.164Z,5.20
2018-06-30T11:52:31.336Z,4.40
2018-06-30T11:55:00.547Z,5.60
2018-06-30T11:57:29.743Z,3.40
2018-06-30T12:00:04.167Z,4.50
2018-06-30T12:02:33.499Z,3.40
2018-06-30T12:05:03.390Z,5.37
2018-06-30T12:07:32.563Z,4.20
2018-06-30T12:10:01.835Z,3.10
2018-06-30T12:12:31.107Z,3.20
2018-06-30T12:15:00.316Z,3.70
2018-06-30T12:17:29.590Z,3.07
2018-06-30T12:19:58.903Z,3.77
2018-06-30T12:22:28.139Z,3.40
2018-06-30T12:24:57.443Z,5.10
2018-06-30T12:27:26.736Z,3.50
2018-06-30T12:29:56.010Z,5.37
2018-06-30T12:32:25.872Z,3.17
2018-06-30T12:34:55.076Z,6.07
2018-06-30T12:37:24.267Z,3.77
2018-06-30T12:39:53.511Z,3.30
2018-06-30T12:42:22.771Z,3.37
2018-06-30T12:44:52.837Z,3.90
2018-06-30T12:47:22.067Z,3.30
2018-06-30T12:49:53.275Z,3.37
2018-06-30T12:52:22.523Z,3.40
2018-06-30T12:54:51.765Z,6.53
2018-06-30T12:57:20.965Z,4.77
2018-06-30T12:59:50.220Z,3.30
2018-06-30T13:02:19.636Z,4.40
2018-06-30T13:04:48.974Z,3.60
2018-06-30T13:07:18.174Z,3.97
2018-06-30T13:09:47.446Z,3.53
2018-06-30T13:12:16.982Z,3.83
2018-06-30T13:14:46.207Z,2.70
2018-06-30T13:17:17.395Z,4.53
2018-06-30T13:19:46.690Z,4.30
2018-06-30T13:22:15.934Z,3.83
2018-06-30T13:24:46.659Z,4.00
2018-06-30T13:27:16.783Z,3.17
2018-06-30T13:29:46.163Z,4.13
2018-06-30T13:32:15.553Z,3.20
2018-06-30T13:34:45.604Z,4.20
2018-06-30T13:37:14.808Z,3.30
2018-06-30T13:39:50.942Z,2.93
2018-06-30T13:42:20.191Z,3.50
2018-06-30T13:44:49.535Z,5.73
2018-06-30T13:47:18.781Z,2.70
2018-06-30T13:49:47.987Z,2.73
2018-06-30T13:52:17.651Z,2.20
2018-06-30T13:54:47.144Z,2.50
2018-06-30T13:57:16.492Z,3.53
2018-06-30T13:59:45.634Z,1.90
2018-06-30T14:02:14.887Z,3.20
2018-06-30T14:04:44.157Z,2.17
2018-06-30T14:07:13.600Z,3.90
2018-06-30T14:09:46.751Z,4.00
2018-06-30T14:12:15.953Z,2.43
2018-06-30T14:14:51.520Z,1.40
2018-06-30T14:17:25.091Z,4.43
2018-06-30T14:19:54.418Z,2.17
2018-06-30T14:22:23.704Z,1.57
2018-06-30T14:24:52.875Z,3.77
2018-06-30T14:27:22.146Z,1.50
2018-06-30T14:29:51.416Z,2.50
2018-06-30T14:32:20.656Z,1.40
2018-06-30T14:34:49.855Z,3.20
2018-06-30T14:37:19.144Z,1.40
2018-06-30T14:39:49.883Z,2.50
2018-06-30T14:42:19.514Z,2.93
2018-06-30T14:44:48.803Z,3.30
2018-06-30T14:47:18.099Z,2.37
2018-06-30T14:49:47.531Z,4.40
2018-06-30T14:52:16.867Z,1.10
2018-06-30T14:54:47.582Z,3.60
2018-06-30T14:57:16.863Z,1.93
2018-06-30T14:59:46.068Z,1.43
2018-06-30T15:02:15.518Z,1.20
2018-06-30T15:10:30.204Z,4.00
2018-06-30T15:12:59.457Z,2.57
2018-06-30T15:15:28.764Z,2.50
2018-06-30T15:17:59.339Z,1.47
2018-06-30T15:20:28.644Z,1.50
2018-06-30T15:22:57.875Z,1.47
2018-06-30T15:25:27.333Z,1.63
2018-06-30T15:27:56.803Z,2.20
2018-06-30T15:30:26.190Z,2.50
2018-06-30T15:32:55.531Z,2.77
2018-06-30T15:35:24.727Z,3.00
2018-06-30T15:37:54.287Z,3.97
2018-06-30T15:40:23.611Z,3.50
2018-06-30T15:42:52.843Z,4.30
2018-06-30T15:45:22.428Z,3.50
2018-06-30T15:47:51.767Z,8.07
2018-06-30T15:50:26.958Z,13.03
2018-06-30T15:52:56.283Z,4.13
2018-06-30T15:55:26.141Z,1.10
2018-06-30T15:57:55.871Z,1.20
2018-06-30T16:00:26.237Z,2.40
2018-06-30T16:02:55.612Z,0.97
2018-06-30T16:05:24.910Z,3.07
2018-06-30T16:07:54.522Z,0.70
2018-06-30T16:10:24.515Z,2.20
2018-06-30T16:12:53.935Z,2.77
2018-06-30T16:15:23.347Z,2.87
2018-06-30T16:17:52.560Z,1.83
2018-06-30T16:20:21.766Z,0.80
2018-06-30T16:22:50.910Z,0.63
2018-06-30T16:25:20.103Z,3.03
2018-06-30T16:27:49.319Z,2.37
2018-06-30T16:30:18.641Z,1.07
2018-06-30T16:32:47.917Z,3.50
2018-06-30T16:35:17.690Z,2.27
2018-06-30T16:37:46.967Z,1.70
2018-06-30T16:40:16.176Z,2.33
2018-06-30T16:42:45.400Z,3.27
2018-06-30T16:45:14.880Z,1.13
2018-06-30T16:47:44.380Z,0.80
2018-06-30T16:50:13.651Z,2.47
2018-06-30T16:52:42.905Z,0.43
2018-06-30T16:55:12.121Z,0.70
2018-06-30T16:57:41.350Z,0.90
2018-06-30T17:00:11.075Z,3.33
2018-06-30T17:02:40.286Z,0.80
2018-06-30T17:05:09.813Z,3.40
2018-06-30T17:07:38.975Z,0.57
2018-06-30T17:10:08.368Z,3.23
2018-06-30T17:12:37.209Z,0.60
2018-06-30T17:15:06.675Z,1.63
2018-06-30T17:20:31.214Z,1.43
2018-06-30T17:23:00.636Z,1.63
2018-06-30T17:25:37.803Z,1.27
2018-06-30T17:28:16.626Z,1.97
2018-06-30T17:30:45.899Z,0.70
2018-06-30T17:39:00.975Z,0.70
2018-06-30T17:41:30.309Z,1.27
2018-06-30T17:43:59.553Z,1.27
2018-06-30T17:46:28.825Z,1.63
2018-06-30T17:48:58.119Z,1.13
2018-06-30T17:51:27.395Z,2.60
2018-06-30T17:53:56.636Z,0.90
2018-06-30T17:56:25.949Z,1.50
2018-06-30T17:58:55.100Z,6.53
2018-06-30T18:01:24.251Z,0.93
2018-06-30T18:03:53.459Z,1.03
2018-06-30T18:06:23.119Z,1.03
2018-06-30T18:08:52.326Z,1.30
2018-06-30T18:11:21.639Z,1.03
2018-06-30T18:13:51.267Z,1.00
2018-06-30T18:16:20.553Z,2.50
2018-06-30T18:18:50.040Z,0.80
2018-06-30T18:21:19.379Z,1.00
2018-06-30T18:23:48.835Z,2.53
2018-06-30T18:26:34.447Z,2.97
2018-06-30T18:29:03.768Z,1.47
2018-06-30T18:31:33.230Z,0.63
2018-06-30T18:34:02.667Z,2.53
2018-06-30T18:36:33.176Z,3.13
2018-06-30T18:39:18.621Z,1.00
2018-06-30T18:41:49.776Z,0.83
2018-06-30T18:44:19.118Z,3.00
2018-06-30T18:58:22.222Z,1.70
2018-06-30T19:00:56.941Z,1.97
2018-06-30T19:03:26.848Z,1.37
2018-06-30T19:05:56.138Z,2.70
2018-06-30T19:08:25.391Z,0.87
2018-06-30T19:13:49.350Z,2.60
2018-06-30T19:16:18.623Z,0.80
2018-06-30T19:18:48.075Z,1.47
2018-06-30T19:21:17.969Z,2.93
2018-06-30T19:23:47.687Z,2.43
2018-06-30T19:26:17.138Z,2.10
2018-06-30T19:28:46.782Z,1.83
2018-06-30T19:31:16.041Z,3.20
2018-06-30T19:33:45.371Z,2.97
2018-06-30T19:36:14.563Z,1.30
2018-06-30T19:38:43.794Z,2.07
2018-06-30T19:41:13.393Z,3.10
2018-06-30T19:43:42.714Z,2.53
2018-06-30T19:46:11.929Z,2.30
2018-06-30T19:48:46.762Z,3.53
2018-06-30T19:51:15.956Z,3.23
2018-06-30T19:56:44.237Z,2.17
2018-06-30T19:59:14.031Z,2.10
2018-06-30T20:01:43.203Z,1.87
2018-06-30T20:04:12.831Z,2.00
2018-06-30T20:06:43.986Z,2.37
2018-06-30T20:09:14.408Z,2.40
2018-06-30T20:11:43.932Z,3.87
2018-06-30T20:14:14.628Z,1.70
2018-06-30T20:16:43.893Z,1.33
2018-06-30T20:19:15.262Z,1.60
2018-06-30T20:21:44.620Z,2.03
2018-06-30T20:24:13.827Z,1.37
2018-06-30T20:26:43.909Z,3.00
2018-06-30T20:29:13.232Z,1.70
2018-06-30T20:31:42.447Z,1.87
2018-06-30T20:34:11.668Z,2.67
2018-06-30T20:36:41.925Z,1.43
2018-06-30T20:39:12.141Z,1.70
2018-06-30T20:41:41.404Z,2.33
2018-06-30T20:44:10.799Z,2.00
2018-06-30T20:46:41.782Z,1.43
2018-06-30T20:49:11.450Z,4.30
2018-06-30T20:51:41.056Z,3.17
2018-06-30T20:54:10.462Z,1.10
2018-06-30T20:56:40.236Z,1.80
2018-06-30T21:05:08.872Z,3.93
2018-06-30T21:07:38.012Z,1.90
2018-06-30T21:10:07.548Z,1.30
2018-06-30T21:12:36.875Z,1.17
2018-06-30T21:15:06.300Z,1.63
2018-06-30T21:17:35.549Z,1.27
2018-06-30T21:20:05.471Z,1.50
2018-06-30T21:22:34.744Z,3.03
2018-06-30T21:25:04.914Z,2.43
2018-06-30T21:27:34.127Z,4.40
2018-06-30T21:30:03.376Z,6.20
2018-06-30T21:32:32.676Z,1.20
2018-06-30T21:35:01.821Z,3.07
2018-06-30T21:37:31.083Z,2.37
2018-06-30T21:40:00.241Z,2.17
2018-06-30T21:42:30.109Z,2.63
2018-06-30T21:44:59.279Z,2.73
2018-06-30T21:47:28.510Z,1.10
2018-06-30T21:49:57.777Z,0.90
2018-06-30T21:52:26.964Z,1.43
2018-06-30T21:54:56.220Z,1.77
2018-06-30T21:57:25.412Z,1.37
2018-06-30T21:59:54.663Z,2.00
2018-06-30T22:02:23.931Z,1.40
2018-06-30T22:04:53.150Z,3.33
2018-06-30T22:07:22.478Z,1.13
2018-06-30T22:09:51.808Z,1.47
2018-06-30T22:12:21.095Z,1.00
2018-06-30T22:14:51.241Z,3.20
2018-06-30T22:17:20.489Z,1.17
2018-06-30T22:19:49.851Z,1.20
2018-06-30T22:22:19.131Z,1.50
2018-06-30T22:24:48.359Z,1.83
2018-06-30T22:27:17.670Z,1.20
2018-06-30T22:29:46.915Z,1.53
2018-06-30T22:32:19.775Z,1.63
2018-06-30T22:34:49.079Z,2.33
2018-06-30T22:37:18.396Z,2.23
2018-06-30T22:39:58.531Z,3.57
2018-06-30T22:42:27.777Z,1.10
2018-06-30T22:44:57.011Z,2.10
2018-06-30T22:47:26.279Z,2.80
2018-06-30T22:49:55.475Z,1.80
2018-06-30T22:52:24.760Z,3.30
2018-06-30T22:54:53.956Z,3.13
2018-06-30T22:57:23.634Z,1.20
2018-06-30T22:59:53.538Z,2.13
2018-06-30T23:02:22.857Z,1.93
2018-06-30T23:04:52.079Z,1.70
2018-06-30T23:07:21.305Z,1.77
2018-06-30T23:09:50.748Z,1.27
2018-06-30T23:12:20.043Z,1.67
2018-06-30T23:14:48.813Z,1.20
2018-06-30T23:17:18.089Z,1.70
2018-06-30T23:19:47.624Z,0.70
2018-06-30T23:22:19.976Z,1.00
2018-06-30T23:24:49.214Z,1.37
2018-06-30T23:27:18.570Z,2.17
2018-06-30T23:29:47.860Z,3.77
2018-06-30T23:32:17.989Z,1.97
2018-06-30T23:34:47.547Z,5.00
2018-06-30T23:37:16.699Z,1.53
2018-06-30T23:39:45.846Z,1.77
2018-06-30T23:42:15.008Z,1.33
2018-06-30T23:44:44.218Z,1.87
2018-06-30T23:47:13.420Z,2.40
2018-06-30T23:49:42.635Z,2.73
2018-06-30T23:52:12.392Z,2.10
2018-06-30T23:54:41.728Z,1.83
2018-06-30T23:57:11.669Z,2.60
2018-06-30T23:59:44.411Z,2.57
